createdAt,value
2022-11-20T00:00:19.284Z,99.993896
2022-11-20T00:01:28.995Z,99.993896
2022-11-20T00:02:38.695Z,99.993896
2022-11-20T00:03:48.367Z,99.963379
2022-11-20T00:04:58.072Z,99.993896
2022-11-20T00:06:05.742Z,99.963379
2022-11-20T00:07:13.579Z,99.963379
2022-11-20T00:08:23.189Z,99.6521
2022-11-20T00:09:32.859Z,99.6521
2022-11-20T00:10:41.550Z,99.859619
2022-11-20T00:11:51.251Z,99.755859
2022-11-20T00:13:00.929Z,99.755859
2022-11-20T00:14:10.636Z,99.755859
2022-11-20T00:15:19.295Z,99.44458
2022-11-20T00:16:29.001Z,99.298096
2022-11-20T00:17:38.694Z,99.401855
2022-11-20T00:18:48.372Z,99.505615
2022-11-20T00:19:57.063Z,99.713135
2022-11-20T00:21:05.742Z,99.401855
2022-11-20T00:22:15.452Z,99.505615
2022-11-20T00:23:25.138Z,99.401855
2022-11-20T00:24:32.797Z,99.298096
2022-11-20T00:25:42.504Z,99.194336
2022-11-20T00:26:52.172Z,99.090576
2022-11-20T00:28:00.879Z,99.194336
2022-11-20T00:29:09.531Z,99.194336
2022-11-20T00:30:19.248Z,99.090576
2022-11-20T00:31:28.934Z,99.298096
2022-11-20T00:32:38.621Z,99.505615
2022-11-20T00:33:48.341Z,99.505615
2022-11-20T00:34:57.036Z,99.505615
2022-11-20T00:36:06.699Z,99.401855
2022-11-20T00:37:15.419Z,99.401855
2022-11-20T00:38:24.091Z,99.401855
2022-11-20T00:39:32.774Z,99.505615
2022-11-20T00:40:41.464Z,99.505615
2022-11-20T00:41:51.195Z,99.505615
2022-11-20T00:43:01.023Z,99.505615
2022-11-20T00:44:08.725Z,99.609375
2022-11-20T00:45:18.503Z,99.505615
2022-11-20T00:46:27.174Z,99.505615
2022-11-20T00:47:36.884Z,99.713135
2022-11-20T00:48:46.574Z,99.993896
2022-11-20T00:49:55.249Z,99.993896
2022-11-20T00:51:03.955Z,99.993896
2022-11-20T00:52:13.619Z,99.993896
2022-11-20T00:53:23.302Z,99.993896
2022-11-20T00:54:30.988Z,99.993896
2022-11-20T00:55:39.664Z,99.993896
2022-11-20T00:56:49.325Z,99.993896
2022-11-20T00:58:01.444Z,99.993896
2022-11-20T00:59:08.659Z,99.993896
2022-11-20T01:00:17.514Z,99.993896
2022-11-20T01:01:27.340Z,99.993896
2022-11-20T01:02:36.835Z,99.993896
2022-11-20T01:03:44.485Z,99.993896
2022-11-20T01:04:53.155Z,99.993896
2022-11-20T01:06:02.870Z,99.993896
2022-11-20T01:07:12.589Z,99.993896
2022-11-20T01:08:21.310Z,99.993896
2022-11-20T01:09:31.975Z,99.993896
2022-11-20T01:10:40.653Z,99.993896
2022-11-20T01:11:49.352Z,99.993896
2022-11-20T01:12:58.021Z,99.993896
2022-11-20T01:14:06.685Z,99.993896
2022-11-20T01:15:16.359Z,99.993896
2022-11-20T01:16:26.019Z,99.993896
2022-11-20T01:17:34.750Z,99.993896
2022-11-20T01:18:43.415Z,99.993896
2022-11-20T01:19:53.088Z,99.993896
2022-11-20T01:21:02.754Z,99.993896
2022-11-20T01:22:11.475Z,99.993896
2022-11-20T01:23:20.149Z,99.993896
2022-11-20T01:24:29.835Z,99.993896
2022-11-20T01:25:39.490Z,99.993896
2022-11-20T01:26:49.183Z,99.993896
2022-11-20T01:27:58.841Z,99.993896
2022-11-20T01:29:07.528Z,99.993896
2022-11-20T01:30:17.229Z,99.993896
2022-11-20T01:31:25.885Z,99.993896
2022-11-20T01:32:33.570Z,99.993896
2022-11-20T01:33:43.232Z,99.993896
2022-11-20T01:34:52.932Z,99.993896
2022-11-20T01:36:01.608Z,99.993896
2022-11-20T01:37:10.275Z,99.993896
2022-11-20T01:38:18.947Z,99.963379
2022-11-20T01:39:28.651Z,99.54834
2022-11-20T01:40:37.394Z,99.44458
2022-11-20T01:41:45.060Z,99.505615
2022-11-20T01:42:54.753Z,99.609375
2022-11-20T01:44:03.437Z,99.243164
2022-11-20T01:45:13.105Z,99.090576
2022-11-20T01:46:21.884Z,99.194336
2022-11-20T01:47:30.569Z,99.090576
2022-11-20T01:48:40.249Z,99.194336
2022-11-20T01:49:46.913Z,99.298096
2022-11-20T01:50:54.689Z,99.401855
2022-11-20T01:52:04.394Z,99.401855
2022-11-20T01:53:14.068Z,99.6521
2022-11-20T01:54:22.732Z,99.859619
2022-11-20T01:55:31.433Z,99.6521
2022-11-20T01:56:40.105Z,99.44458
2022-11-20T01:57:49.818Z,99.34082
2022-11-20T01:58:59.491Z,99.243164
2022-11-20T02:00:07.149Z,99.44458
2022-11-20T02:01:16.865Z,99.505615
2022-11-20T02:02:25.489Z,99.6521
2022-11-20T02:03:35.416Z,99.34082
2022-11-20T02:04:45.091Z,99.34082
2022-11-20T02:05:54.760Z,99.139404
2022-11-20T02:07:04.510Z,98.931885
2022-11-20T02:08:14.161Z,99.139404
2022-11-20T02:09:23.224Z,99.139404
2022-11-20T02:10:32.565Z,99.035645
2022-11-20T02:11:42.259Z,99.139404
2022-11-20T02:12:50.963Z,98.828125
2022-11-20T02:14:00.639Z,98.828125
2022-11-20T02:15:09.459Z,98.931885
2022-11-20T02:16:19.204Z,99.035645
2022-11-20T02:17:27.916Z,98.931885
2022-11-20T02:18:36.604Z,98.724365
2022-11-20T02:19:46.256Z,98.620605
2022-11-20T02:20:54.937Z,98.620605
2022-11-20T02:22:03.604Z,98.309326
2022-11-20T02:23:13.275Z,98.413086
2022-11-20T02:24:23.027Z,98.468018
2022-11-20T02:25:32.683Z,98.620605
2022-11-20T02:26:40.403Z,98.724365
2022-11-20T02:27:48.065Z,98.724365
2022-11-20T02:28:57.732Z,98.620605
2022-11-20T02:30:06.394Z,98.516846
2022-11-20T02:31:15.056Z,98.620605
2022-11-20T02:32:24.739Z,98.516846
2022-11-20T02:33:33.403Z,98.413086
2022-11-20T02:34:43.077Z,98.413086
2022-11-20T02:35:51.731Z,98.266602
2022-11-20T02:37:00.423Z,98.266602
2022-11-20T02:38:10.125Z,98.266602
2022-11-20T02:39:18.042Z,98.266602
2022-11-20T02:40:27.489Z,98.101807
2022-11-20T02:41:37.167Z,98.162842
2022-11-20T02:42:45.845Z,98.059082
2022-11-20T02:43:54.542Z,98.101807
2022-11-20T02:45:03.214Z,97.955322
2022-11-20T02:46:11.892Z,98.205566
2022-11-20T02:47:21.585Z,97.747803
2022-11-20T02:48:33.740Z,97.436523
2022-11-20T02:49:40.105Z,97.332764
2022-11-20T02:50:49.783Z,97.332764
2022-11-20T02:51:58.455Z,97.436523
2022-11-20T02:53:07.133Z,97.436523
2022-11-20T02:54:16.855Z,97.229004
2022-11-20T02:55:25.523Z,97.436523
2022-11-20T02:56:35.287Z,97.125244
2022-11-20T02:57:42.979Z,97.125244
2022-11-20T02:58:52.671Z,97.332764
2022-11-20T03:00:02.343Z,97.332764
2022-11-20T03:01:12.076Z,97.332764
2022-11-20T03:02:21.721Z,97.125244
2022-11-20T03:03:30.418Z,97.229004
2022-11-20T03:04:40.133Z,97.125244
2022-11-20T03:05:49.818Z,97.332764
2022-11-20T03:06:58.691Z,97.436523
2022-11-20T03:08:06.349Z,97.332764
2022-11-20T03:09:16.020Z,97.125244
2022-11-20T03:10:24.685Z,97.229004
2022-11-20T03:11:34.371Z,97.229004
2022-11-20T03:12:43.106Z,97.332764
2022-11-20T03:13:51.800Z,97.229004
2022-11-20T03:15:01.493Z,97.229004
2022-11-20T03:16:10.201Z,97.229004
2022-11-20T03:17:18.857Z,97.021484
2022-11-20T03:18:26.549Z,97.125244
2022-11-20T03:19:35.210Z,97.021484
2022-11-20T03:20:44.875Z,97.021484
2022-11-20T03:21:53.533Z,97.021484
2022-11-20T03:23:02.194Z,97.125244
2022-11-20T03:24:10.881Z,96.820068
2022-11-20T03:25:19.550Z,96.716309
2022-11-20T03:26:29.218Z,96.508789
2022-11-20T03:27:37.889Z,96.612549
2022-11-20T03:28:45.541Z,96.612549
2022-11-20T03:29:55.268Z,96.612549
2022-11-20T03:31:04.934Z,96.508789
2022-11-20T03:32:14.624Z,96.612549
2022-11-20T03:33:23.287Z,96.30127
2022-11-20T03:34:31.955Z,96.19751
2022-11-20T03:35:41.654Z,96.19751
2022-11-20T03:36:51.337Z,96.09375
2022-11-20T03:38:00.011Z,96.09375
2022-11-20T03:39:09.705Z,95.98999
2022-11-20T03:40:18.361Z,95.88623
2022-11-20T03:41:28.057Z,96.09375
2022-11-20T03:42:37.727Z,96.09375
2022-11-20T03:43:46.401Z,96.19751
2022-11-20T03:44:56.054Z,95.98999
2022-11-20T03:46:04.774Z,95.678711
2022-11-20T03:47:13.423Z,95.678711
2022-11-20T03:48:23.166Z,95.166016
2022-11-20T03:49:31.843Z,95.062256
2022-11-20T03:50:41.514Z,95.062256
2022-11-20T03:51:51.277Z,95.269775
2022-11-20T03:52:59.948Z,94.958496
2022-11-20T03:54:09.619Z,94.958496
2022-11-20T03:55:18.296Z,94.854736
2022-11-20T03:56:26.984Z,94.543457
2022-11-20T03:57:36.661Z,94.543457
2022-11-20T03:58:45.326Z,94.543457
2022-11-20T03:59:54.999Z,94.647217
2022-11-20T04:01:03.657Z,94.439697
2022-11-20T04:02:12.377Z,94.647217
2022-11-20T04:03:22.000Z,94.543457
2022-11-20T04:04:31.687Z,94.543457
2022-11-20T04:05:40.366Z,94.647217
2022-11-20T04:06:50.037Z,94.854736
2022-11-20T04:07:58.698Z,94.439697
2022-11-20T04:09:07.384Z,94.232178
2022-11-20T04:10:16.160Z,94.335938
2022-11-20T04:11:25.834Z,94.543457
2022-11-20T04:12:34.485Z,94.439697
2022-11-20T04:13:43.137Z,94.647217
2022-11-20T04:14:51.811Z,94.647217
2022-11-20T04:16:01.513Z,94.439697
2022-11-20T04:17:11.181Z,94.439697
2022-11-20T04:18:20.855Z,94.647217
2022-11-20T04:19:30.519Z,94.439697
2022-11-20T04:20:39.173Z,94.232178
2022-11-20T04:21:48.874Z,94.335938
2022-11-20T04:22:57.536Z,94.335938
2022-11-20T04:24:06.226Z,94.128418
2022-11-20T04:25:15.900Z,94.232178
2022-11-20T04:26:24.560Z,94.439697
2022-11-20T04:27:32.241Z,94.439697
2022-11-20T04:28:41.921Z,93.927002
2022-11-20T04:29:51.583Z,94.128418
2022-11-20T04:31:01.262Z,94.128418
2022-11-20T04:32:10.938Z,93.927002
2022-11-20T04:33:18.671Z,94.232178
2022-11-20T04:34:28.349Z,93.927002
2022-11-20T04:35:37.003Z,94.232178
2022-11-20T04:36:46.764Z,94.030762
2022-11-20T04:37:55.432Z,93.823242
2022-11-20T04:39:04.094Z,93.823242
2022-11-20T04:40:14.750Z,93.927002
2022-11-20T04:41:24.401Z,94.128418
2022-11-20T04:42:33.264Z,94.030762
2022-11-20T04:43:43.042Z,94.232178
2022-11-20T04:44:51.715Z,94.030762
2022-11-20T04:46:01.385Z,94.030762
2022-11-20T04:47:10.080Z,93.823242
2022-11-20T04:48:18.733Z,94.030762
2022-11-20T04:49:28.437Z,93.927002
2022-11-20T04:50:37.109Z,93.927002
2022-11-20T04:51:45.782Z,93.823242
2022-11-20T04:52:55.452Z,94.030762
2022-11-20T04:54:04.108Z,94.030762
2022-11-20T04:55:13.776Z,94.482422
2022-11-20T04:56:22.461Z,94.177246
2022-11-20T04:57:31.124Z,94.128418
2022-11-20T04:58:40.811Z,94.128418
2022-11-20T04:59:49.483Z,94.128418
2022-11-20T05:00:59.167Z,93.927002
2022-11-20T05:02:08.899Z,94.030762
2022-11-20T05:03:18.641Z,94.030762
2022-11-20T05:04:28.356Z,93.927002
2022-11-20T05:05:38.036Z,93.927002
2022-11-20T05:06:47.696Z,93.927002
2022-11-20T05:07:57.384Z,94.030762
2022-11-20T05:09:05.039Z,93.927002
2022-11-20T05:10:13.720Z,94.030762
2022-11-20T05:11:23.389Z,94.030762
2022-11-20T05:12:33.067Z,94.232178
2022-11-20T05:13:41.906Z,94.128418
2022-11-20T05:14:50.571Z,94.128418
2022-11-20T05:16:00.221Z,94.128418
2022-11-20T05:17:09.883Z,94.232178
2022-11-20T05:18:17.538Z,94.439697
2022-11-20T05:19:27.259Z,94.335938
2022-11-20T05:20:34.958Z,94.439697
2022-11-20T05:21:43.564Z,94.543457
2022-11-20T05:22:53.224Z,94.232178
2022-11-20T05:24:01.878Z,94.335938
2022-11-20T05:25:10.603Z,94.335938
2022-11-20T05:26:20.306Z,94.335938
2022-11-20T05:27:28.941Z,94.030762
2022-11-20T05:28:38.628Z,93.927002
2022-11-20T05:29:47.293Z,93.927002
2022-11-20T05:30:56.976Z,93.823242
2022-11-20T05:32:05.660Z,93.927002
2022-11-20T05:33:14.325Z,93.511963
2022-11-20T05:34:22.993Z,93.304443
2022-11-20T05:35:31.661Z,93.304443
2022-11-20T05:36:41.352Z,93.408203
2022-11-20T05:37:52.006Z,93.304443
2022-11-20T05:39:02.100Z,93.200684
2022-11-20T05:40:10.301Z,92.993164
2022-11-20T05:41:19.978Z,93.304443
2022-11-20T05:42:29.646Z,93.304443
2022-11-20T05:43:39.325Z,93.408203
2022-11-20T05:44:48.988Z,93.304443
2022-11-20T05:45:57.648Z,93.200684
2022-11-20T05:47:07.334Z,93.096924
2022-11-20T05:48:16.644Z,92.993164
2022-11-20T05:49:24.325Z,93.511963
2022-11-20T05:50:33.981Z,93.304443
2022-11-20T05:51:43.639Z,93.304443
2022-11-20T05:52:53.303Z,93.096924
2022-11-20T05:54:03.006Z,93.096924
2022-11-20T05:55:11.673Z,93.096924
2022-11-20T05:56:21.352Z,93.408203
2022-11-20T05:57:28.981Z,93.200684
2022-11-20T05:58:36.631Z,93.096924
2022-11-20T05:59:45.323Z,92.993164
2022-11-20T06:00:54.974Z,93.096924
2022-11-20T06:02:04.638Z,93.096924
2022-11-20T06:03:13.321Z,93.096924
2022-11-20T06:04:22.976Z,93.615723
2022-11-20T06:05:32.651Z,93.719482
2022-11-20T06:06:41.311Z,93.927002
2022-11-20T06:07:50.997Z,93.823242
2022-11-20T06:09:00.657Z,93.719482
2022-11-20T06:10:10.299Z,93.511963
2022-11-20T06:11:19.997Z,93.615723
2022-11-20T06:12:28.658Z,93.719482
2022-11-20T06:13:41.988Z,93.823242
2022-11-20T06:14:47.958Z,93.615723
2022-11-20T06:15:56.608Z,93.615723
2022-11-20T06:17:04.398Z,93.823242
2022-11-20T06:18:14.083Z,93.865967
2022-11-20T06:19:23.937Z,93.554688
2022-11-20T06:20:36.674Z,93.450928
2022-11-20T06:21:44.043Z,93.554688
2022-11-20T06:22:52.722Z,93.554688
2022-11-20T06:24:02.501Z,93.243408
2022-11-20T06:25:12.175Z,93.243408
2022-11-20T06:26:20.845Z,92.724609
2022-11-20T06:27:30.500Z,92.828369
2022-11-20T06:28:40.185Z,92.828369
2022-11-20T06:29:48.836Z,92.828369
2022-11-20T06:30:58.531Z,92.419434
2022-11-20T06:32:08.205Z,92.626953
2022-11-20T06:33:17.869Z,92.523193
2022-11-20T06:34:27.664Z,92.724609
2022-11-20T06:35:35.371Z,92.974854
2022-11-20T06:36:45.110Z,93.078613
2022-11-20T06:37:53.772Z,92.871094
2022-11-20T06:39:02.426Z,92.871094
2022-11-20T06:40:11.103Z,92.358398
2022-11-20T06:41:20.769Z,92.669678
2022-11-20T06:42:30.432Z,92.358398
2022-11-20T06:43:39.093Z,92.254639
2022-11-20T06:44:46.752Z,92.254639
2022-11-20T06:45:56.445Z,91.8396
2022-11-20T06:47:06.119Z,91.52832
2022-11-20T06:48:14.774Z,91.424561
2022-11-20T06:49:24.760Z,91.52832
2022-11-20T06:50:35.104Z,91.63208
2022-11-20T06:51:44.786Z,91.009521
2022-11-20T06:52:52.423Z,90.802002
2022-11-20T06:54:00.089Z,90.905762
2022-11-20T06:55:09.743Z,90.600586
2022-11-20T06:56:19.419Z,90.289307
2022-11-20T06:57:29.115Z,89.935303
2022-11-20T06:58:37.820Z,90.142822
2022-11-20T06:59:47.478Z,90.246582
2022-11-20T07:00:57.161Z,90.039062
2022-11-20T07:02:05.793Z,89.831543
2022-11-20T07:03:15.467Z,89.520264
2022-11-20T07:04:25.129Z,89.520264
2022-11-20T07:05:33.775Z,89.416504
2022-11-20T07:06:43.428Z,89.624023
2022-11-20T07:07:51.081Z,89.520264
2022-11-20T07:08:59.760Z,90.246582
2022-11-20T07:10:10.423Z,90.246582
2022-11-20T07:11:18.075Z,90.142822
2022-11-20T07:12:27.739Z,89.788818
2022-11-20T07:13:37.406Z,89.788818
2022-11-20T07:14:47.125Z,90.161133
2022-11-20T07:15:56.799Z,89.129639
2022-11-20T07:17:06.450Z,88.818359
2022-11-20T07:18:16.168Z,88.61084
2022-11-20T07:19:24.799Z,88.513184
2022-11-20T07:20:33.584Z,88.7146
2022-11-20T07:21:43.278Z,89.129639
2022-11-20T07:22:50.946Z,89.440918
2022-11-20T07:24:00.614Z,89.086914
2022-11-20T07:25:10.285Z,88.983154
2022-11-20T07:26:18.957Z,89.086914
2022-11-20T07:27:28.615Z,89.398193
2022-11-20T07:28:37.267Z,89.398193
2022-11-20T07:29:46.918Z,89.709473
2022-11-20T07:30:56.593Z,89.813232
2022-11-20T07:32:05.272Z,89.953613
2022-11-20T07:33:13.925Z,90.264893
2022-11-20T07:34:23.631Z,90.576172
2022-11-20T07:35:33.339Z,90.783691
2022-11-20T07:36:43.006Z,90.887451
2022-11-20T07:37:52.693Z,90.472412
2022-11-20T07:39:02.354Z,90.368652
2022-11-20T07:40:12.039Z,90.679932
2022-11-20T07:41:21.706Z,90.057373
2022-11-20T07:42:30.369Z,90.161133
2022-11-20T07:43:41.533Z,90.264893
2022-11-20T07:44:48.703Z,90.264893
2022-11-20T07:45:58.377Z,90.264893
2022-11-20T07:47:07.039Z,90.264893
2022-11-20T07:48:15.750Z,90.161133
2022-11-20T07:49:25.407Z,90.264893
2022-11-20T07:50:33.065Z,90.161133
2022-11-20T07:51:40.713Z,89.544678
2022-11-20T07:52:51.407Z,89.233398
2022-11-20T07:54:00.068Z,89.544678
2022-11-20T07:55:09.991Z,89.233398
2022-11-20T07:56:19.673Z,89.233398
2022-11-20T07:57:29.310Z,88.7146
2022-11-20T07:58:38.980Z,88.922119
2022-11-20T07:59:46.716Z,88.61084
2022-11-20T08:00:55.507Z,88.818359
2022-11-20T08:02:05.075Z,88.7146
2022-11-20T08:03:13.742Z,88.781738
2022-11-20T08:04:23.391Z,88.470459
2022-11-20T08:05:33.057Z,88.470459
2022-11-20T08:06:42.750Z,88.470459
2022-11-20T08:07:51.408Z,88.05542
2022-11-20T08:09:00.071Z,87.8479
2022-11-20T08:10:08.730Z,87.8479
2022-11-20T08:11:18.420Z,87.542725
2022-11-20T08:12:27.094Z,87.95166
2022-11-20T08:13:36.786Z,87.646484
2022-11-20T08:14:45.445Z,87.8479
2022-11-20T08:15:54.093Z,87.335205
2022-11-20T08:17:03.765Z,87.231445
2022-11-20T08:19:21.340Z,87.335205
2022-11-20T08:20:30.742Z,87.542725
2022-11-20T08:21:39.386Z,87.8479
2022-11-20T08:22:49.043Z,88.15918
2022-11-20T08:23:57.865Z,87.542725
2022-11-20T08:25:06.512Z,87.438965
2022-11-20T08:26:16.176Z,87.231445
2022-11-20T08:27:25.844Z,87.335205
2022-11-20T08:28:33.690Z,87.335205
2022-11-20T08:29:43.384Z,87.335205
2022-11-20T08:30:52.044Z,87.188721
2022-11-20T08:32:00.695Z,86.883545
2022-11-20T08:33:09.369Z,86.676025
2022-11-20T08:34:19.429Z,86.572266
2022-11-20T08:35:28.721Z,86.260986
2022-11-20T08:36:38.385Z,86.468506
2022-11-20T08:37:46.047Z,85.949707
2022-11-20T08:38:55.716Z,86.157227
2022-11-20T08:40:05.381Z,86.468506
2022-11-20T08:41:14.068Z,86.779785
2022-11-20T08:42:22.741Z,86.572266
2022-11-20T08:43:32.412Z,86.572266
2022-11-20T08:44:43.066Z,85.852051
2022-11-20T08:45:51.721Z,85.644531
2022-11-20T08:47:00.417Z,85.852051
2022-11-20T08:48:10.080Z,85.437012
2022-11-20T08:49:20.004Z,85.437012
2022-11-20T08:50:28.405Z,85.089111
2022-11-20T08:51:37.081Z,84.777832
2022-11-20T08:52:45.751Z,85.089111
2022-11-20T08:53:55.420Z,85.601807
2022-11-20T08:55:03.084Z,84.777832
2022-11-20T08:56:10.788Z,84.881592
2022-11-20T08:57:20.402Z,84.362793
2022-11-20T08:58:30.991Z,84.362793
2022-11-20T09:00:07.227Z,84.466553
2022-11-20T09:00:50.551Z,84.429932
2022-11-20T09:02:00.204Z,84.942627
2022-11-20T09:03:10.872Z,84.429932
2022-11-20T09:04:19.548Z,84.533691
2022-11-20T09:05:27.204Z,84.326172
2022-11-20T09:06:36.867Z,84.533691
2022-11-20T09:07:45.514Z,84.741211
2022-11-20T09:08:54.177Z,83.294678
2022-11-20T09:10:22.956Z,83.605957
2022-11-20T09:11:14.476Z,83.190918
2022-11-20T09:12:24.184Z,83.190918
2022-11-20T09:13:32.838Z,83.190918
2022-11-20T09:14:42.509Z,83.709717
2022-11-20T09:15:53.195Z,83.087158
2022-11-20T09:17:00.856Z,82.781982
2022-11-20T09:18:10.750Z,83.398438
2022-11-20T09:19:34.929Z,83.709717
2022-11-20T09:20:30.078Z,82.781982
2022-11-20T09:21:39.804Z,82.885742
2022-11-20T09:22:49.468Z,82.678223
2022-11-20T09:23:59.161Z,82.885742
2022-11-20T09:25:07.835Z,82.843018
2022-11-20T09:26:17.510Z,82.641602
2022-11-20T09:27:27.329Z,82.330322
2022-11-20T09:28:35.989Z,83.258057
2022-11-20T09:29:44.652Z,82.537842
2022-11-20T09:30:54.329Z,82.226562
2022-11-20T09:32:04.002Z,81.811523
2022-11-20T09:33:13.683Z,81.811523
2022-11-20T09:34:21.424Z,81.915283
2022-11-20T09:35:30.093Z,81.402588
2022-11-20T09:36:39.747Z,81.506348
2022-11-20T09:37:48.405Z,81.713867
2022-11-20T09:38:57.093Z,81.573486
2022-11-20T09:40:05.764Z,81.774902
2022-11-20T09:41:14.406Z,81.365967
2022-11-20T09:42:24.059Z,81.158447
2022-11-20T09:43:34.905Z,81.158447
2022-11-20T09:44:42.374Z,80.438232
2022-11-20T09:45:51.039Z,80.847168
2022-11-20T09:46:59.708Z,80.334473
2022-11-20T09:48:09.357Z,80.438232
2022-11-20T09:49:18.063Z,80.541992
2022-11-20T09:50:26.738Z,80.749512
2022-11-20T09:51:36.432Z,80.401611
2022-11-20T09:52:46.258Z,80.090332
2022-11-20T09:53:55.928Z,79.681396
2022-11-20T09:55:05.603Z,79.473877
2022-11-20T09:56:18.255Z,79.577637
2022-11-20T09:57:25.935Z,79.577637
2022-11-20T09:58:33.599Z,79.162598
2022-11-20T09:59:42.267Z,79.577637
2022-11-20T10:00:51.945Z,79.370117
2022-11-20T10:01:59.619Z,78.753662
2022-11-20T10:03:07.270Z,78.753662
2022-11-20T10:04:16.935Z,78.857422
2022-11-20T10:05:25.595Z,77.825928
2022-11-20T10:06:34.266Z,78.546143
2022-11-20T10:07:43.985Z,78.717041
2022-11-20T10:08:52.590Z,78.509521
2022-11-20T10:10:02.250Z,78.509521
2022-11-20T10:11:10.911Z,78.405762
2022-11-20T10:12:19.580Z,77.276611
2022-11-20T10:13:29.300Z,78.271484
2022-11-20T10:14:37.984Z,77.032471
2022-11-20T10:15:46.656Z,77.032471
2022-11-20T10:16:56.331Z,76.928711
2022-11-20T10:18:04.979Z,77.032471
2022-11-20T10:19:14.675Z,76.727295
2022-11-20T10:20:23.336Z,76.794434
2022-11-20T10:21:32.002Z,76.483154
2022-11-20T10:22:41.666Z,76.586914
2022-11-20T10:23:51.316Z,76.483154
2022-11-20T10:25:00.000Z,77.062988
2022-11-20T10:26:08.665Z,77.062988
2022-11-20T10:27:17.327Z,76.757812
2022-11-20T10:28:26.997Z,76.141357
2022-11-20T10:29:34.660Z,76.550293
2022-11-20T10:30:44.469Z,76.348877
2022-11-20T10:31:54.136Z,76.446533
2022-11-20T10:33:02.796Z,76.861572
2022-11-20T10:34:12.866Z,76.757812
2022-11-20T10:35:23.121Z,76.446533
2022-11-20T10:36:31.809Z,77.032471
2022-11-20T10:37:41.482Z,76.824951
2022-11-20T10:38:49.134Z,75.830078
2022-11-20T10:39:57.795Z,76.037598
2022-11-20T10:41:07.457Z,76.446533
2022-11-20T10:42:16.173Z,76.348877
2022-11-20T10:43:25.868Z,76.208496
2022-11-20T10:44:34.529Z,76.104736
2022-11-20T10:45:43.179Z,75.695801
2022-11-20T10:46:52.853Z,75.488281
2022-11-20T10:48:01.656Z,75.695801
2022-11-20T10:49:11.324Z,75.799561
2022-11-20T10:50:22.349Z,76.416016
2022-11-20T10:51:29.613Z,75.866699
2022-11-20T10:52:39.279Z,75.866699
2022-11-20T10:53:48.974Z,74.938965
2022-11-20T10:54:57.617Z,74.633789
2022-11-20T10:56:07.279Z,74.737549
2022-11-20T10:57:15.943Z,74.530029
2022-11-20T10:58:25.619Z,74.224854
2022-11-20T10:59:35.296Z,73.809814
2022-11-20T11:00:43.991Z,74.121094
2022-11-20T11:01:52.617Z,74.053955
2022-11-20T11:03:02.296Z,73.742676
2022-11-20T11:04:10.945Z,73.638916
2022-11-20T11:05:20.750Z,74.255371
2022-11-20T11:06:30.401Z,74.151611
2022-11-20T11:07:39.115Z,74.359131
2022-11-20T11:08:48.730Z,74.255371
2022-11-20T11:09:56.378Z,74.871826
2022-11-20T11:11:06.074Z,74.975586
2022-11-20T11:12:14.737Z,74.871826
2022-11-20T11:13:23.413Z,74.359131
2022-11-20T11:14:32.072Z,74.597168
2022-11-20T11:15:41.742Z,75.421143
2022-11-20T11:16:51.427Z,75.421143
2022-11-20T11:18:00.101Z,75.317383
2022-11-20T11:19:08.756Z,75.421143
2022-11-20T11:20:18.416Z,75.933838
2022-11-20T11:21:28.091Z,75.421143
2022-11-20T11:22:36.749Z,75.732422
2022-11-20T11:23:45.491Z,76.550293
2022-11-20T11:24:54.490Z,76.757812
2022-11-20T11:26:04.313Z,76.861572
2022-11-20T11:27:16.737Z,76.965332
2022-11-20T11:28:22.688Z,76.965332
2022-11-20T11:29:32.428Z,76.757812
2022-11-20T11:30:41.080Z,76.550293
2022-11-20T11:31:49.743Z,76.861572
2022-11-20T11:32:59.408Z,76.965332
2022-11-20T11:34:09.331Z,76.446533
2022-11-20T11:35:18.992Z,76.757812
2022-11-20T11:36:27.662Z,77.166748
2022-11-20T11:37:37.348Z,77.166748
2022-11-20T11:38:47.012Z,76.617432
2022-11-20T11:40:16.348Z,76.617432
2022-11-20T11:41:06.358Z,76.312256
2022-11-20T11:42:16.028Z,75.799561
2022-11-20T11:43:24.693Z,75.897217
2022-11-20T11:44:35.345Z,76.208496
2022-11-20T11:45:43.035Z,76.104736
2022-11-20T11:46:51.694Z,75.384521
2022-11-20T11:48:01.361Z,75.799561
2022-11-20T11:49:10.147Z,75.897217
2022-11-20T11:50:19.938Z,75.799561
2022-11-20T11:51:28.642Z,75.799561
2022-11-20T11:52:38.490Z,75.897217
2022-11-20T11:53:48.144Z,75.799561
2022-11-20T11:54:55.802Z,75.695801
2022-11-20T11:56:04.495Z,75.970459
2022-11-20T11:57:14.223Z,75.45166
2022-11-20T11:58:22.903Z,75.384521
2022-11-20T11:59:31.631Z,75.183105
2022-11-20T12:00:40.266Z,74.768066
2022-11-20T12:01:50.060Z,75.286865
2022-11-20T12:02:58.680Z,74.975586
2022-11-20T12:04:07.363Z,75.384521
2022-11-20T12:05:17.011Z,75.286865
2022-11-20T12:06:26.695Z,75.183105
2022-11-20T12:07:50.561Z,75.384521
2022-11-20T12:08:46.141Z,75.286865
2022-11-20T12:09:54.809Z,75.286865
2022-11-20T12:11:04.485Z,74.975586
2022-11-20T12:12:14.141Z,75.695801
2022-11-20T12:13:21.809Z,75.897217
2022-11-20T12:14:31.636Z,75.799561
2022-11-20T12:15:41.305Z,75.799561
2022-11-20T12:16:49.976Z,76.000977
2022-11-20T12:17:59.642Z,76.617432
2022-11-20T12:19:09.308Z,76.550293
2022-11-20T12:20:18.997Z,77.062988
2022-11-20T12:21:28.663Z,77.618408
2022-11-20T12:22:37.344Z,80.328369
2022-11-20T12:23:45.997Z,83.654785
2022-11-20T12:24:58.549Z,84.619141
2022-11-20T12:26:07.228Z,85.241699
2022-11-20T12:27:15.906Z,86.517334
2022-11-20T12:28:25.622Z,87.438965
2022-11-20T12:29:35.281Z,86.517334
2022-11-20T12:30:44.948Z,86.61499
2022-11-20T12:31:54.648Z,85.693359
2022-11-20T12:33:06.340Z,85.791016
2022-11-20T12:34:16.003Z,86.206055
2022-11-20T12:35:24.647Z,85.894775
2022-11-20T12:36:33.322Z,85.791016
2022-11-20T12:37:43.144Z,85.070801
2022-11-20T12:38:51.808Z,85.48584
2022-11-20T12:40:01.482Z,85.48584
2022-11-20T12:41:09.165Z,86.309814
2022-11-20T12:42:17.840Z,86.761475
2022-11-20T12:43:27.554Z,87.689209
2022-11-20T12:44:36.235Z,88.616943
2022-11-20T12:45:44.928Z,89.337158
2022-11-20T12:46:54.614Z,89.648438
2022-11-20T12:48:04.279Z,89.276123
2022-11-20T12:49:13.968Z,88.861084
2022-11-20T12:50:22.630Z,89.648438
2022-11-20T12:51:30.310Z,89.648438
2022-11-20T12:52:39.041Z,89.440918
2022-11-20T12:53:47.695Z,89.440918
2022-11-20T12:54:57.395Z,88.720703
2022-11-20T12:56:08.056Z,88.098145
2022-11-20T12:57:17.744Z,88.305664
2022-11-20T12:58:27.416Z,87.994385
2022-11-20T12:59:37.109Z,87.994385
2022-11-20T13:00:44.821Z,87.792969
2022-11-20T13:01:54.502Z,88.098145
2022-11-20T13:03:03.156Z,88.305664
2022-11-20T13:04:12.832Z,88.305664
2022-11-20T13:05:22.502Z,88.305664
2022-11-20T13:06:31.185Z,88.409424
2022-11-20T13:07:40.906Z,88.513184
2022-11-20T13:08:49.515Z,88.513184
2022-11-20T13:09:59.197Z,88.513184
2022-11-20T13:11:07.921Z,88.616943